sensor_id;sensor_type;location;lat;lon;timestamp;pressure;altitude;pressure_sealevel;temperature;humidity
12219;BME280;6172;42.646;23.344;2023-02-28T00:00:14;95096.16;;;5.03;100.00
12219;BME280;6172;42.646;23.344;2023-02-28T00:02:42;95107.75;;;5.03;100.00
12219;BME280;6172;42.646;23.344;2023-02-28T00:05:11;95102.50;;;5.17;100.00
12219;BME280;6172;42.646;23.344;2023-02-28T00:07:38;95090.28;;;5.27;100.00
12219;BME280;6172;42.646;23.344;2023-02-28T00:10:07;95092.41;;;5.11;100.00
12219;BME280;6172;42.646;23.344;2023-02-28T00:12:36;95102.88;;;5.16;100.00
12219;BME280;6172;42.646;23.344;2023-02-28T00:15:06;95118.06;;;5.27;100.00
12219;BME280;6172;42.646;23.344;2023-02-28T00:17:33;95082.41;;;5.15;100.00
12219;BME280;6172;42.646;23.344;2023-02-28T00:20:00;95111.84;;;4.90;100.00
12219;BME280;6172;42.646;23.344;2023-02-28T00:22:38;95109.81;;;5.13;100.00
12219;BME280;6172;42.646;23.344;2023-02-28T00:25:07;95093.97;;;5.12;100.00
12219;BME280;6172;42.646;23.344;2023-02-28T00:27:36;95107.75;;;5.03;100.00
12219;BME280;6172;42.646;23.344;2023-02-28T00:30:05;95111.56;;;4.99;100.00
12219;BME280;6172;42.646;23.344;2023-02-28T00:32:35;95090.84;;;5.10;100.00
12219;BME280;6172;42.646;23.344;2023-02-28T00:35:03;95098.38;;;4.94;100.00
12219;BME280;6172;42.646;23.344;2023-02-28T00:37:30;95093.28;;;4.89;100.00
12219;BME280;6172;42.646;23.344;2023-02-28T00:39:57;95100.38;;;5.00;100.00
12219;BME280;6172;42.646;23.344;2023-02-28T00:42:24;95102.94;;;4.90;100.00
12219;BME280;6172;42.646;23.344;2023-02-28T00:44:54;95086.47;;;4.69;100.00
12219;BME280;6172;42.646;23.344;2023-02-28T00:47:21;95092.34;;;4.74;100.00
12219;BME280;6172;42.646;23.344;2023-02-28T00:49:47;95095.81;;;4.75;100.00
12219;BME280;6172;42.646;23.344;2023-02-28T00:52:14;95100.50;;;4.78;100.00
12219;BME280;6172;42.646;23.344;2023-02-28T00:54:41;95099.78;;;4.81;100.00
12219;BME280;6172;42.646;23.344;2023-02-28T00:57:08;95109.69;;;4.73;100.00
12219;BME280;6172;42.646;23.344;2023-02-28T00:59:36;95110.34;;;4.67;100.00
12219;BME280;6172;42.646;23.344;2023-02-28T01:02:04;95097.75;;;4.74;100.00
12219;BME280;6172;42.646;23.344;2023-02-28T01:04:32;95112.41;;;4.77;100.00
12219;BME280;6172;42.646;23.344;2023-02-28T01:06:59;95092.25;;;4.67;100.00
12219;BME280;6172;42.646;23.344;2023-02-28T01:09:26;95106.44;;;4.61;100.00
12219;BME280;6172;42.646;23.344;2023-02-28T01:11:53;95094.84;;;4.60;100.00
12219;BME280;6172;42.646;23.344;2023-02-28T01:14:20;95104.69;;;4.46;100.00
12219;BME280;6172;42.646;23.344;2023-02-28T01:16:47;95097.03;;;4.51;100.00
12219;BME280;6172;42.646;23.344;2023-02-28T01:19:17;95103.69;;;4.31;100.00
12219;BME280;6172;42.646;23.344;2023-02-28T01:21:43;95092.13;;;4.08;100.00
12219;BME280;6172;42.646;23.344;2023-02-28T01:24:11;95090.22;;;4.09;100.00
12219;BME280;6172;42.646;23.344;2023-02-28T01:26:37;95094.22;;;4.15;100.00
12219;BME280;6172;42.646;23.344;2023-02-28T01:29:04;95097.94;;;4.33;100.00
12219;BME280;6172;42.646;23.344;2023-02-28T01:31:32;95100.44;;;4.19;100.00
12219;BME280;6172;42.646;23.344;2023-02-28T01:34:00;95095.66;;;4.35;100.00
12219;BME280;6172;42.646;23.344;2023-02-28T01:36:28;95097.00;;;4.48;100.00
12219;BME280;6172;42.646;23.344;2023-02-28T01:38:56;95107.38;;;4.46;100.00
12219;BME280;6172;42.646;23.344;2023-02-28T01:41:25;95102.16;;;4.60;100.00
12219;BME280;6172;42.646;23.344;2023-02-28T01:43:58;95108.44;;;4.67;100.00
12219;BME280;6172;42.646;23.344;2023-02-28T01:46:25;95108.66;;;4.55;100.00
12219;BME280;6172;42.646;23.344;2023-02-28T01:48:55;95103.00;;;4.64;100.00
12219;BME280;6172;42.646;23.344;2023-02-28T01:51:29;95117.63;;;4.63;100.00
12219;BME280;6172;42.646;23.344;2023-02-28T01:54:00;95116.59;;;4.71;100.00
12219;BME280;6172;42.646;23.344;2023-02-28T01:56:32;95116.88;;;4.62;100.00
12219;BME280;6172;42.646;23.344;2023-02-28T01:59:00;95119.66;;;4.69;100.00
12219;BME280;6172;42.646;23.344;2023-02-28T02:01:29;95111.94;;;4.68;100.00
12219;BME280;6172;42.646;23.344;2023-02-28T02:04:00;95115.75;;;4.67;100.00
12219;BME280;6172;42.646;23.344;2023-02-28T02:06:37;95110.47;;;4.74;100.00
12219;BME280;6172;42.646;23.344;2023-02-28T02:09:04;95108.78;;;4.62;100.00
12219;BME280;6172;42.646;23.344;2023-02-28T02:11:32;95117.28;;;4.64;100.00
12219;BME280;6172;42.646;23.344;2023-02-28T02:17:08;95103.19;;;4.78;100.00
12219;BME280;6172;42.646;23.344;2023-02-28T02:23:03;95104.13;;;4.63;100.00
12219;BME280;6172;42.646;23.344;2023-02-28T02:25:40;95100.63;;;4.59;100.00
12219;BME280;6172;42.646;23.344;2023-02-28T02:31:31;95097.09;;;4.55;100.00
12219;BME280;6172;42.646;23.344;2023-02-28T02:34:24;95102.50;;;4.55;100.00
12219;BME280;6172;42.646;23.344;2023-02-28T02:37:02;95100.56;;;4.55;100.00
12219;BME280;6172;42.646;23.344;2023-02-28T02:39:43;95097.97;;;4.62;100.00
12219;BME280;6172;42.646;23.344;2023-02-28T02:42:16;95112.94;;;4.56;100.00
12219;BME280;6172;42.646;23.344;2023-02-28T02:44:49;95111.00;;;4.57;100.00
12219;BME280;6172;42.646;23.344;2023-02-28T02:47:22;95118.78;;;4.62;100.00
12219;BME280;6172;42.646;23.344;2023-02-28T02:49:55;95117.97;;;4.58;100.00
12219;BME280;6172;42.646;23.344;2023-02-28T02:52:30;95110.34;;;4.67;100.00
12219;BME280;6172;42.646;23.344;2023-02-28T02:55:03;95113.69;;;4.57;100.00
12219;BME280;6172;42.646;23.344;2023-02-28T02:57:35;95116.75;;;4.55;100.00
12219;BME280;6172;42.646;23.344;2023-02-28T03:00:04;95124.47;;;4.53;100.00
12219;BME280;6172;42.646;23.344;2023-02-28T03:02:35;95128.41;;;4.33;100.00
12219;BME280;6172;42.646;23.344;2023-02-28T03:05:08;95131.66;;;4.46;100.00
12219;BME280;6172;42.646;23.344;2023-02-28T03:07:39;95145.16;;;4.46;100.00
12219;BME280;6172;42.646;23.344;2023-02-28T03:10:32;95141.22;;;4.40;100.00
12219;BME280;6172;42.646;23.344;2023-02-28T03:13:14;95154.28;;;4.12;100.00
12219;BME280;6172;42.646;23.344;2023-02-28T03:15:54;95156.47;;;4.06;100.00
12219;BME280;6172;42.646;23.344;2023-02-28T03:18:29;95155.38;;;4.11;100.00
12219;BME280;6172;42.646;23.344;2023-02-28T03:21:04;95155.22;;;4.23;100.00
12219;BME280;6172;42.646;23.344;2023-02-28T03:23:39;95155.38;;;4.33;100.00
12219;BME280;6172;42.646;23.344;2023-02-28T03:26:13;95164.13;;;4.27;100.00
12219;BME280;6172;42.646;23.344;2023-02-28T03:28:51;95169.72;;;4.37;100.00
12219;BME280;6172;42.646;23.344;2023-02-28T03:31:23;95167.31;;;4.32;100.00
12219;BME280;6172;42.646;23.344;2023-02-28T03:33:59;95175.00;;;4.08;100.00
12219;BME280;6172;42.646;23.344;2023-02-28T03:36:33;95173.84;;;4.31;100.00
12219;BME280;6172;42.646;23.344;2023-02-28T03:39:12;95166.84;;;4.27;100.00
12219;BME280;6172;42.646;23.344;2023-02-28T03:41:44;95172.84;;;4.17;100.00
12219;BME280;6172;42.646;23.344;2023-02-28T03:44:18;95177.88;;;4.18;100.00
12219;BME280;6172;42.646;23.344;2023-02-28T03:46:51;95182.78;;;4.13;100.00
12219;BME280;6172;42.646;23.344;2023-02-28T03:49:23;95182.66;;;4.06;100.00
12219;BME280;6172;42.646;23.344;2023-02-28T03:51:55;95179.25;;;4.31;100.00
12219;BME280;6172;42.646;23.344;2023-02-28T03:54:25;95180.25;;;4.01;100.00
12219;BME280;6172;42.646;23.344;2023-02-28T03:56:57;95180.38;;;4.08;100.00
12219;BME280;6172;42.646;23.344;2023-02-28T03:59:29;95185.94;;;4.15;100.00
12219;BME280;6172;42.646;23.344;2023-02-28T04:01:59;95190.53;;;4.14;100.00
12219;BME280;6172;42.646;23.344;2023-02-28T04:04:26;95187.50;;;3.74;100.00
12219;BME280;6172;42.646;23.344;2023-02-28T04:07:01;95183.47;;;3.65;100.00
12219;BME280;6172;42.646;23.344;2023-02-28T04:09:29;95181.06;;;3.60;100.00
12219;BME280;6172;42.646;23.344;2023-02-28T04:11:56;95188.00;;;3.61;100.00
12219;BME280;6172;42.646;23.344;2023-02-28T04:14:23;95182.00;;;3.48;100.00
12219;BME280;6172;42.646;23.344;2023-02-28T04:16:51;95185.31;;;3.61;100.00
12219;BME280;6172;42.646;23.344;2023-02-28T04:19:18;95179.03;;;3.76;100.00
12219;BME280;6172;42.646;23.344;2023-02-28T04:21:49;95182.19;;;3.59;100.00
12219;BME280;6172;42.646;23.344;2023-02-28T04:24:20;95189.81;;;3.76;100.00
12219;BME280;6172;42.646;23.344;2023-02-28T04:26:49;95193.47;;;3.87;100.00
12219;BME280;6172;42.646;23.344;2023-02-28T04:29:19;95177.03;;;3.50;100.00
12219;BME280;6172;42.646;23.344;2023-02-28T04:31:47;95177.53;;;3.37;100.00
12219;BME280;6172;42.646;23.344;2023-02-28T04:34:15;95186.72;;;3.55;100.00
12219;BME280;6172;42.646;23.344;2023-02-28T04:36:42;95189.06;;;3.56;100.00
12219;BME280;6172;42.646;23.344;2023-02-28T04:39:09;95195.72;;;3.62;100.00
12219;BME280;6172;42.646;23.344;2023-02-28T04:41:37;95205.41;;;3.44;100.00
12219;BME280;6172;42.646;23.344;2023-02-28T04:44:04;95202.28;;;3.42;100.00
12219;BME280;6172;42.646;23.344;2023-02-28T04:46:31;95199.66;;;3.46;100.00
12219;BME280;6172;42.646;23.344;2023-02-28T04:48:58;95211.94;;;3.43;100.00
12219;BME280;6172;42.646;23.344;2023-02-28T04:51:25;95214.25;;;3.45;100.00
12219;BME280;6172;42.646;23.344;2023-02-28T04:53:52;95221.06;;;3.39;100.00
12219;BME280;6172;42.646;23.344;2023-02-28T04:56:20;95216.44;;;3.39;100.00
12219;BME280;6172;42.646;23.344;2023-02-28T04:58:48;95219.63;;;3.64;100.00
12219;BME280;6172;42.646;23.344;2023-02-28T05:01:19;95219.75;;;3.71;100.00
12219;BME280;6172;42.646;23.344;2023-02-28T05:03:46;95218.09;;;3.44;100.00
12219;BME280;6172;42.646;23.344;2023-02-28T05:06:14;95215.38;;;3.44;100.00
12219;BME280;6172;42.646;23.344;2023-02-28T05:08:40;95224.03;;;3.53;100.00
12219;BME280;6172;42.646;23.344;2023-02-28T05:11:18;95230.84;;;3.66;100.00
12219;BME280;6172;42.646;23.344;2023-02-28T05:13:45;95223.59;;;3.70;100.00
12219;BME280;6172;42.646;23.344;2023-02-28T05:16:14;95220.19;;;3.73;100.00
12219;BME280;6172;42.646;23.344;2023-02-28T05:18:41;95228.19;;;3.88;100.00
12219;BME280;6172;42.646;23.344;2023-02-28T05:21:22;95228.41;;;3.80;100.00
12219;BME280;6172;42.646;23.344;2023-02-28T05:23:50;95227.97;;;3.78;100.00
12219;BME280;6172;42.646;23.344;2023-02-28T05:26:17;95231.22;;;3.87;100.00
12219;BME280;6172;42.646;23.344;2023-02-28T05:28:45;95236.00;;;3.74;100.00
12219;BME280;6172;42.646;23.344;2023-02-28T05:31:14;95234.59;;;3.80;100.00
12219;BME280;6172;42.646;23.344;2023-02-28T05:33:42;95251.41;;;3.74;100.00
12219;BME280;6172;42.646;23.344;2023-02-28T05:36:09;95241.97;;;3.83;100.00
12219;BME280;6172;42.646;23.344;2023-02-28T05:38:36;95241.91;;;3.61;100.00
12219;BME280;6172;42.646;23.344;2023-02-28T05:41:08;95237.56;;;3.56;100.00
12219;BME280;6172;42.646;23.344;2023-02-28T05:43:37;95251.13;;;3.60;100.00
12219;BME280;6172;42.646;23.344;2023-02-28T05:46:05;95254.44;;;3.72;100.00
12219;BME280;6172;42.646;23.344;2023-02-28T05:48:35;95260.75;;;3.80;100.00
12219;BME280;6172;42.646;23.344;2023-02-28T05:51:04;95260.06;;;3.83;100.00
12219;BME280;6172;42.646;23.344;2023-02-28T05:53:31;95251.88;;;3.79;100.00
12219;BME280;6172;42.646;23.344;2023-02-28T05:55:58;95259.25;;;3.82;100.00
12219;BME280;6172;42.646;23.344;2023-02-28T05:58:26;95259.22;;;3.79;100.00
12219;BME280;6172;42.646;23.344;2023-02-28T06:00:56;95263.94;;;3.85;100.00
12219;BME280;6172;42.646;23.344;2023-02-28T06:03:23;95256.59;;;3.63;100.00
12219;BME280;6172;42.646;23.344;2023-02-28T06:05:51;95262.44;;;3.88;100.00
12219;BME280;6172;42.646;23.344;2023-02-28T06:08:19;95257.47;;;3.90;100.00
12219;BME280;6172;42.646;23.344;2023-02-28T06:10:46;95250.28;;;3.75;100.00
12219;BME280;6172;42.646;23.344;2023-02-28T06:13:14;95250.75;;;3.80;100.00
12219;BME280;6172;42.646;23.344;2023-02-28T06:15:41;95255.03;;;4.04;100.00
12219;BME280;6172;42.646;23.344;2023-02-28T06:18:08;95253.22;;;4.08;100.00
12219;BME280;6172;42.646;23.344;2023-02-28T06:20:36;95254.75;;;4.09;100.00
12219;BME280;6172;42.646;23.344;2023-02-28T06:23:05;95261.16;;;4.20;100.00
12219;BME280;6172;42.646;23.344;2023-02-28T06:25:32;95255.16;;;4.11;100.00
12219;BME280;6172;42.646;23.344;2023-02-28T06:27:59;95255.16;;;4.11;100.00
12219;BME280;6172;42.646;23.344;2023-02-28T06:30:28;95246.09;;;4.19;100.00
12219;BME280;6172;42.646;23.344;2023-02-28T06:32:57;95259.72;;;4.07;100.00
12219;BME280;6172;42.646;23.344;2023-02-28T06:35:23;95253.53;;;4.25;100.00
12219;BME280;6172;42.646;23.344;2023-02-28T06:37:50;95243.72;;;4.36;100.00
12219;BME280;6172;42.646;23.344;2023-02-28T06:40:19;95260.38;;;4.42;100.00
12219;BME280;6172;42.646;23.344;2023-02-28T06:42:46;95265.72;;;4.61;100.00
12219;BME280;6172;42.646;23.344;2023-02-28T06:45:14;95258.94;;;4.48;100.00
12219;BME280;6172;42.646;23.344;2023-02-28T06:47:41;95261.88;;;4.62;100.00
12219;BME280;6172;42.646;23.344;2023-02-28T06:50:10;95270.53;;;4.74;100.00
12219;BME280;6172;42.646;23.344;2023-02-28T06:52:38;95267.84;;;4.74;100.00
12219;BME280;6172;42.646;23.344;2023-02-28T06:55:06;95271.47;;;4.85;100.00
12219;BME280;6172;42.646;23.344;2023-02-28T06:57:35;95266.69;;;5.01;100.00
12219;BME280;6172;42.646;23.344;2023-02-28T07:00:08;95260.53;;;5.01;100.00
12219;BME280;6172;42.646;23.344;2023-02-28T07:02:35;95262.34;;;4.93;100.00
12219;BME280;6172;42.646;23.344;2023-02-28T07:05:04;95258.06;;;5.18;100.00
12219;BME280;6172;42.646;23.344;2023-02-28T07:07:31;95252.94;;;5.10;100.00
12219;BME280;6172;42.646;23.344;2023-02-28T07:10:28;95255.25;;;5.08;100.00
12219;BME280;6172;42.646;23.344;2023-02-28T07:12:59;95253.16;;;4.98;100.00
12219;BME280;6172;42.646;23.344;2023-02-28T07:15:27;95251.81;;;5.11;100.00
12219;BME280;6172;42.646;23.344;2023-02-28T07:17:56;95247.31;;;5.22;100.00
12219;BME280;6172;42.646;23.344;2023-02-28T07:20:23;95253.00;;;5.13;100.00
12219;BME280;6172;42.646;23.344;2023-02-28T07:22:50;95252.94;;;5.10;100.00
12219;BME280;6172;42.646;23.344;2023-02-28T07:25:21;95257.69;;;5.20;100.00
12219;BME280;6172;42.646;23.344;2023-02-28T07:27:48;95252.38;;;5.23;100.00
12219;BME280;6172;42.646;23.344;2023-02-28T07:30:17;95255.56;;;5.32;100.00
12219;BME280;6172;42.646;23.344;2023-02-28T07:32:44;95259.03;;;5.33;100.00
12219;BME280;6172;42.646;23.344;2023-02-28T07:35:12;95254.22;;;5.45;100.00
12219;BME280;6172;42.646;23.344;2023-02-28T07:37:42;95249.75;;;5.60;100.00
12219;BME280;6172;42.646;23.344;2023-02-28T07:40:10;95247.50;;;5.65;100.00
12219;BME280;6172;42.646;23.344;2023-02-28T07:42:38;95260.44;;;5.83;100.00
12219;BME280;6172;42.646;23.344;2023-02-28T07:45:08;95258.94;;;5.85;100.00
12219;BME280;6172;42.646;23.344;2023-02-28T07:47:38;95245.16;;;5.97;100.00
12219;BME280;6172;42.646;23.344;2023-02-28T07:50:06;95251.44;;;6.05;100.00
12219;BME280;6172;42.646;23.344;2023-02-28T07:52:41;95250.53;;;6.30;100.00
12219;BME280;6172;42.646;23.344;2023-02-28T07:55:09;95237.44;;;6.39;100.00
12219;BME280;6172;42.646;23.344;2023-02-28T07:57:36;95241.38;;;6.05;100.00
12219;BME280;6172;42.646;23.344;2023-02-28T08:00:04;95229.38;;;6.06;100.00
12219;BME280;6172;42.646;23.344;2023-02-28T08:02:34;95232.50;;;6.05;100.00
12219;BME280;6172;42.646;23.344;2023-02-28T08:05:04;95230.09;;;6.00;100.00
12219;BME280;6172;42.646;23.344;2023-02-28T08:07:31;95235.66;;;6.14;100.00
12219;BME280;6172;42.646;23.344;2023-02-28T08:09:59;95236.91;;;6.23;100.00
12219;BME280;6172;42.646;23.344;2023-02-28T08:12:26;95236.97;;;6.30;100.00
12219;BME280;6172;42.646;23.344;2023-02-28T08:14:53;95234.81;;;6.46;100.00
12219;BME280;6172;42.646;23.344;2023-02-28T08:17:20;95227.78;;;6.82;100.00
12219;BME280;6172;42.646;23.344;2023-02-28T08:19:47;95231.09;;;7.19;100.00
12219;BME280;6172;42.646;23.344;2023-02-28T08:22:15;95219.22;;;7.44;100.00
12219;BME280;6172;42.646;23.344;2023-02-28T08:24:42;95229.72;;;7.53;100.00
12219;BME280;6172;42.646;23.344;2023-02-28T08:27:10;95221.84;;;7.27;100.00
12219;BME280;6172;42.646;23.344;2023-02-28T08:29:37;95225.13;;;7.67;100.00
12219;BME280;6172;42.646;23.344;2023-02-28T08:32:04;95227.00;;;7.53;100.00
12219;BME280;6172;42.646;23.344;2023-02-28T08:34:32;95228.25;;;7.62;100.00
12219;BME280;6172;42.646;23.344;2023-02-28T08:36:59;95227.47;;;7.65;100.00
12219;BME280;6172;42.646;23.344;2023-02-28T08:39:28;95233.75;;;7.87;100.00
12219;BME280;6172;42.646;23.344;2023-02-28T08:41:54;95236.81;;;7.78;100.00
12219;BME280;6172;42.646;23.344;2023-02-28T08:44:21;95226.03;;;8.06;100.00
12219;BME280;6172;42.646;23.344;2023-02-28T08:46:49;95221.34;;;7.82;100.00
12219;BME280;6172;42.646;23.344;2023-02-28T08:49:15;95223.63;;;7.80;100.00
12219;BME280;6172;42.646;23.344;2023-02-28T08:51:43;95218.56;;;7.68;100.00
12219;BME280;6172;42.646;23.344;2023-02-28T08:54:10;95222.53;;;7.95;100.00
12219;BME280;6172;42.646;23.344;2023-02-28T08:56:41;95224.78;;;7.72;100.00
12219;BME280;6172;42.646;23.344;2023-02-28T08:59:10;95230.81;;;7.41;100.00
12219;BME280;6172;42.646;23.344;2023-02-28T09:01:37;95232.75;;;7.34;100.00
12219;BME280;6172;42.646;23.344;2023-02-28T09:04:04;95238.84;;;7.20;100.00
12219;BME280;6172;42.646;23.344;2023-02-28T09:06:34;95233.53;;;7.41;100.00
12219;BME280;6172;42.646;23.344;2023-02-28T09:09:02;95233.63;;;7.55;100.00
12219;BME280;6172;42.646;23.344;2023-02-28T09:11:42;95229.69;;;7.42;100.00
12219;BME280;6172;42.646;23.344;2023-02-28T09:14:09;95229.25;;;7.33;100.00
12219;BME280;6172;42.646;23.344;2023-02-28T09:16:37;95226.84;;;7.21;100.00
12219;BME280;6172;42.646;23.344;2023-02-28T09:19:04;95232.38;;;7.35;100.00
12219;BME280;6172;42.646;23.344;2023-02-28T09:21:32;95240.69;;;7.06;100.00
12219;BME280;6172;42.646;23.344;2023-02-28T09:24:12;95231.13;;;7.22;100.00
12219;BME280;6172;42.646;23.344;2023-02-28T09:26:43;95235.16;;;7.49;100.00
12219;BME280;6172;42.646;23.344;2023-02-28T09:29:10;95226.34;;;7.73;100.00
12219;BME280;6172;42.646;23.344;2023-02-28T09:31:37;95225.56;;;7.76;100.00
12219;BME280;6172;42.646;23.344;2023-02-28T09:34:06;95232.47;;;7.60;100.00
12219;BME280;6172;42.646;23.344;2023-02-28T09:36:33;95222.09;;;7.83;100.00
12219;BME280;6172;42.646;23.344;2023-02-28T09:39:00;95226.06;;;8.10;100.00
12219;BME280;6172;42.646;23.344;2023-02-28T09:41:36;95220.97;;;7.91;100.00
12219;BME280;6172;42.646;23.344;2023-02-28T09:44:22;95215.97;;;8.07;100.00
12219;BME280;6172;42.646;23.344;2023-02-28T09:46:56;95220.56;;;7.85;100.00
12219;BME280;6172;42.646;23.344;2023-02-28T09:49:33;95217.94;;;8.21;100.00
12219;BME280;6172;42.646;23.344;2023-02-28T09:52:03;95208.31;;;8.55;100.00
12219;BME280;6172;42.646;23.344;2023-02-28T09:54:35;95202.84;;;8.79;100.00
12219;BME280;6172;42.646;23.344;2023-02-28T09:57:06;95199.31;;;9.07;100.00
12219;BME280;6172;42.646;23.344;2023-02-28T10:00:00;95194.97;;;9.37;100.00
12219;BME280;6172;42.646;23.344;2023-02-28T10:03:41;95188.03;;;9.19;100.00
12219;BME280;6172;42.646;23.344;2023-02-28T10:06:14;95182.16;;;9.34;100.00
12219;BME280;6172;42.646;23.344;2023-02-28T10:08:50;95190.25;;;9.55;100.00
12219;BME280;6172;42.646;23.344;2023-02-28T10:11:20;95176.69;;;9.41;100.00
12219;BME280;6172;42.646;23.344;2023-02-28T10:13:54;95172.09;;;9.24;100.00
12219;BME280;6172;42.646;23.344;2023-02-28T10:16:31;95171.78;;;9.05;100.00
12219;BME280;6172;42.646;23.344;2023-02-28T10:19:05;95174.91;;;8.79;100.00
12219;BME280;6172;42.646;23.344;2023-02-28T10:21:39;95164.41;;;8.81;100.00
12219;BME280;6172;42.646;23.344;2023-02-28T10:24:18;95172.56;;;8.74;100.00
12219;BME280;6172;42.646;23.344;2023-02-28T10:26:47;95169.06;;;8.91;100.00
12219;BME280;6172;42.646;23.344;2023-02-28T10:29:15;95155.84;;;9.00;100.00
12219;BME280;6172;42.646;23.344;2023-02-28T10:31:42;95163.19;;;9.10;100.00
12219;BME280;6172;42.646;23.344;2023-02-28T10:34:13;95154.50;;;9.53;100.00
12219;BME280;6172;42.646;23.344;2023-02-28T10:36:42;95162.91;;;9.94;100.00
12219;BME280;6172;42.646;23.344;2023-02-28T10:39:39;95144.50;;;10.12;100.00
12219;BME280;6172;42.646;23.344;2023-02-28T10:42:23;95127.66;;;9.55;100.00
12219;BME280;6172;42.646;23.344;2023-02-28T10:45:09;95129.13;;;9.77;100.00
12219;BME280;6172;42.646;23.344;2023-02-28T10:47:53;95130.59;;;9.89;100.00
12219;BME280;6172;42.646;23.344;2023-02-28T10:50:36;95122.88;;;9.84;100.00
12219;BME280;6172;42.646;23.344;2023-02-28T10:53:23;95111.56;;;9.92;100.00
12219;BME280;6172;42.646;23.344;2023-02-28T10:56:00;95121.28;;;9.83;100.00
12219;BME280;6172;42.646;23.344;2023-02-28T10:58:31;95117.75;;;9.96;100.00
12219;BME280;6172;42.646;23.344;2023-02-28T11:00:59;95102.94;;;10.01;100.00
12219;BME280;6172;42.646;23.344;2023-02-28T11:03:32;95105.44;;;9.71;100.00
12219;BME280;6172;42.646;23.344;2023-02-28T11:06:12;95104.50;;;10.02;100.00
12219;BME280;6172;42.646;23.344;2023-02-28T11:08:48;95088.88;;;10.09;100.00
12219;BME280;6172;42.646;23.344;2023-02-28T11:11:28;95088.84;;;9.48;100.00
12219;BME280;6172;42.646;23.344;2023-02-28T11:14:26;95091.84;;;9.67;100.00
12219;BME280;6172;42.646;23.344;2023-02-28T11:16:56;95087.56;;;10.28;100.00
12219;BME280;6172;42.646;23.344;2023-02-28T11:19:29;95086.75;;;10.31;100.00
12219;BME280;6172;42.646;23.344;2023-02-28T11:22:03;95079.53;;;10.55;100.00
12219;BME280;6172;42.646;23.344;2023-02-28T11:24:35;95074.53;;;10.46;100.00
12219;BME280;6172;42.646;23.344;2023-02-28T11:27:03;95075.09;;;9.72;100.00
12219;BME280;6172;42.646;23.344;2023-02-28T11:29:32;95088.72;;;9.69;100.00
12219;BME280;6172;42.646;23.344;2023-02-28T11:32:13;95086.06;;;9.58;100.00
12219;BME280;6172;42.646;23.344;2023-02-28T11:34:43;95086.34;;;9.74;100.00
12219;BME280;6172;42.646;23.344;2023-02-28T11:37:16;95075.78;;;9.87;100.00
12219;BME280;6172;42.646;23.344;2023-02-28T11:39:45;95073.53;;;9.75;100.00
12219;BME280;6172;42.646;23.344;2023-02-28T11:42:35;95081.91;;;10.08;100.00
12219;BME280;6172;42.646;23.344;2023-02-28T11:45:21;95078.72;;;10.13;100.00
12219;BME280;6172;42.646;23.344;2023-02-28T11:47:58;95073.88;;;10.35;100.00
12219;BME280;6172;42.646;23.344;2023-02-28T11:50:44;95067.16;;;10.84;100.00
12219;BME280;6172;42.646;23.344;2023-02-28T11:53:21;95067.50;;;10.89;100.00
12219;BME280;6172;42.646;23.344;2023-02-28T11:55:53;95063.97;;;10.92;100.00
12219;BME280;6172;42.646;23.344;2023-02-28T11:58:44;95057.47;;;10.42;100.00
12219;BME280;6172;42.646;23.344;2023-02-28T12:01:24;95063.84;;;10.28;100.00
12219;BME280;6172;42.646;23.344;2023-02-28T12:04:02;95066.66;;;9.56;100.00
12219;BME280;6172;42.646;23.344;2023-02-28T12:06:37;95078.66;;;10.20;100.00
12219;BME280;6172;42.646;23.344;2023-02-28T12:09:24;95070.81;;;10.29;100.00
12219;BME280;6172;42.646;23.344;2023-02-28T12:11:56;95061.56;;;10.61;100.00
12219;BME280;6172;42.646;23.344;2023-02-28T12:14:50;95068.28;;;10.53;100.00
12219;BME280;6172;42.646;23.344;2023-02-28T12:17:35;95065.03;;;10.24;100.00
12219;BME280;6172;42.646;23.344;2023-02-28T12:20:12;95047.88;;;10.27;100.00
12219;BME280;6172;42.646;23.344;2023-02-28T12:22:50;95067.09;;;10.06;100.00
12219;BME280;6172;42.646;23.344;2023-02-28T12:25:38;95052.53;;;10.30;100.00
12219;BME280;6172;42.646;23.344;2023-02-28T12:28:10;95060.53;;;10.00;100.00
12219;BME280;6172;42.646;23.344;2023-02-28T12:30:42;95062.97;;;10.38;100.00
12219;BME280;6172;42.646;23.344;2023-02-28T12:33:16;95062.91;;;9.94;100.00
12219;BME280;6172;42.646;23.344;2023-02-28T12:35:49;95064.78;;;10.04;100.00
12219;BME280;6172;42.646;23.344;2023-02-28T12:38:23;95064.78;;;9.43;100.00
12219;BME280;6172;42.646;23.344;2023-02-28T12:40:56;95073.47;;;9.82;100.00
12219;BME280;6172;42.646;23.344;2023-02-28T12:43:32;95075.16;;;9.62;100.00
12219;BME280;6172;42.646;23.344;2023-02-28T12:46:03;95065.19;;;9.38;100.00
12219;BME280;6172;42.646;23.344;2023-02-28T12:48:40;95062.00;;;9.50;100.00
12219;BME280;6172;42.646;23.344;2023-02-28T12:51:09;95065.06;;;9.55;100.00
12219;BME280;6172;42.646;23.344;2023-02-28T12:53:50;95066.94;;;9.69;100.00
12219;BME280;6172;42.646;23.344;2023-02-28T12:56:32;95059.28;;;9.53;100.00
12219;BME280;6172;42.646;23.344;2023-02-28T12:59:03;95059.00;;;9.30;100.00
12219;BME280;6172;42.646;23.344;2023-02-28T13:05:00;95063.47;;;9.65;100.00
12219;BME280;6172;42.646;23.344;2023-02-28T13:07:59;95055.41;;;9.51;100.00
12219;BME280;6172;42.646;23.344;2023-02-28T13:10:41;95069.19;;;9.19;100.00
12219;BME280;6172;42.646;23.344;2023-02-28T13:13:16;95071.38;;;9.42;100.00
12219;BME280;6172;42.646;23.344;2023-02-28T13:15:57;95065.91;;;9.52;100.00
12219;BME280;6172;42.646;23.344;2023-02-28T13:18:31;95051.91;;;9.54;100.00
12219;BME280;6172;42.646;23.344;2023-02-28T13:21:22;95053.06;;;9.53;100.00
12219;BME280;6172;42.646;23.344;2023-02-28T13:24:00;95042.47;;;9.65;100.00
12219;BME280;6172;42.646;23.344;2023-02-28T13:29:35;95050.09;;;9.23;100.00
12219;BME280;6172;42.646;23.344;2023-02-28T13:32:31;95055.91;;;9.32;100.00
12219;BME280;6172;42.646;23.344;2023-02-28T13:38:22;95048.16;;;9.23;100.00
12219;BME280;6172;42.646;23.344;2023-02-28T13:40:49;95045.88;;;9.15;100.00
12219;BME280;6172;42.646;23.344;2023-02-28T13:43:18;95068.78;;;9.21;100.00